createdAt,value
2018-01-31T01:53:10.964Z,41.80
2018-01-31T01:55:38.640Z,39.07
2018-01-31T01:58:07.076Z,40.07
2018-01-31T02:00:34.754Z,34.30
2018-01-31T02:03:02.422Z,33.17
2018-01-31T02:05:30.074Z,34.70
2018-01-31T02:07:57.755Z,33.93
2018-01-31T02:10:25.408Z,32.33
2018-01-31T02:12:53.073Z,31.00
2018-01-31T02:15:21.084Z,33.53
2018-01-31T02:17:48.722Z,35.87
2018-01-31T02:20:17.178Z,32.97
2018-01-31T02:22:44.877Z,30.47
2018-01-31T02:25:12.524Z,30.37
2018-01-31T02:27:40.947Z,30.37
2018-01-31T02:30:08.620Z,35.60
2018-01-31T02:32:36.287Z,36.03
2018-01-31T02:35:03.970Z,33.07
2018-01-31T02:37:32.577Z,35.80
2018-01-31T02:40:01.311Z,35.10
2018-01-31T02:42:28.994Z,36.03
2018-01-31T02:44:56.634Z,38.90
2018-01-31T02:47:24.345Z,34.17
2018-01-31T02:49:52.070Z,35.77
2018-01-31T02:52:19.750Z,39.00
2018-01-31T02:54:48.214Z,37.87
2018-01-31T02:57:15.933Z,42.93
2018-01-31T02:59:43.589Z,36.63
2018-01-31T03:02:11.290Z,40.50
2018-01-31T03:04:38.970Z,41.00
2018-01-31T03:07:06.648Z,39.97
2018-01-31T03:09:35.111Z,39.40
2018-01-31T03:12:03.590Z,41.03
2018-01-31T03:14:32.038Z,44.17
2018-01-31T03:16:59.675Z,47.53
2018-01-31T03:19:27.341Z,42.20
2018-01-31T03:21:55.047Z,43.13
2018-01-31T03:24:22.735Z,45.07
2018-01-31T03:26:50.410Z,41.23
2018-01-31T03:29:18.083Z,39.13
2018-01-31T03:31:45.727Z,37.40
2018-01-31T03:34:13.407Z,35.17
2018-01-31T03:36:41.128Z,34.27
2018-01-31T03:39:09.593Z,41.17
2018-01-31T03:41:38.065Z,41.20
2018-01-31T03:44:05.734Z,40.47
2018-01-31T03:46:34.151Z,41.27
2018-01-31T03:49:01.847Z,43.53
2018-01-31T03:51:29.503Z,41.90
2018-01-31T03:53:57.184Z,51.90
2018-01-31T03:56:24.850Z,48.13
2018-01-31T03:58:52.502Z,45.77
2018-01-31T04:01:20.171Z,45.23
2018-01-31T04:03:47.855Z,46.17
2018-01-31T04:06:16.271Z,41.73
2018-01-31T04:08:43.973Z,46.17
2018-01-31T04:11:11.629Z,46.03
2018-01-31T04:13:39.281Z,46.43
2018-01-31T04:16:06.922Z,46.10
2018-01-31T04:18:34.650Z,48.77
2018-01-31T04:21:02.321Z,47.60
2018-01-31T04:23:30.001Z,50.87
2018-01-31T04:25:57.674Z,49.67
2018-01-31T04:28:25.362Z,41.50
2018-01-31T04:30:53.782Z,46.10
2018-01-31T04:33:21.439Z,40.37
2018-01-31T04:35:49.120Z,40.77
2018-01-31T04:38:16.829Z,36.60
2018-01-31T04:40:45.299Z,33.97
2018-01-31T04:43:13.054Z,33.00
2018-01-31T04:45:40.722Z,36.27
2018-01-31T04:48:08.403Z,43.97
2018-01-31T04:50:36.841Z,39.80
2018-01-31T04:53:04.503Z,48.20
2018-01-31T04:55:32.179Z,53.23
2018-01-31T04:57:59.882Z,46.37
2018-01-31T05:00:27.530Z,46.57
2018-01-31T05:02:55.994Z,49.60
2018-01-31T05:05:24.461Z,51.23
2018-01-31T05:07:52.158Z,55.60
2018-01-31T05:10:19.837Z,51.17
2018-01-31T05:12:47.473Z,53.73
2018-01-31T05:15:15.912Z,47.93
2018-01-31T05:17:43.570Z,53.73
2018-01-31T05:20:11.257Z,46.20
2018-01-31T05:22:39.693Z,49.23
2018-01-31T05:25:07.376Z,43.13
2018-01-31T05:27:35.043Z,40.17
2018-01-31T05:30:02.714Z,43.63
2018-01-31T05:32:31.153Z,38.03
2018-01-31T05:34:59.086Z,43.47
2018-01-31T05:37:26.735Z,39.47
2018-01-31T05:39:55.193Z,43.80
2018-01-31T05:42:22.844Z,45.93
2018-01-31T05:44:50.486Z,43.73
2018-01-31T05:47:18.133Z,41.93
2018-01-31T05:49:45.782Z,38.07
2018-01-31T05:52:13.422Z,45.00
2018-01-31T05:54:41.105Z,42.53
2018-01-31T05:57:08.787Z,41.17
2018-01-31T05:59:36.458Z,41.83
2018-01-31T06:02:04.133Z,38.27
2018-01-31T06:04:31.851Z,38.73
2018-01-31T06:06:59.520Z,43.63
2018-01-31T06:09:27.179Z,49.30
2018-01-31T06:11:54.910Z,47.40
2018-01-31T06:14:22.583Z,43.93
2018-01-31T06:16:50.258Z,44.47
2018-01-31T06:19:17.947Z,47.30
2018-01-31T06:21:45.587Z,45.93
2018-01-31T06:24:13.244Z,46.47
2018-01-31T06:26:41.008Z,46.33
2018-01-31T06:29:08.747Z,47.40
2018-01-31T06:31:36.409Z,50.43
2018-01-31T06:34:04.080Z,45.70
2018-01-31T06:36:31.715Z,46.07
2018-01-31T06:38:59.480Z,45.77
2018-01-31T06:41:27.884Z,46.73
2018-01-31T06:43:55.526Z,42.70
2018-01-31T06:46:23.188Z,39.07
2018-01-31T06:48:50.893Z,42.97
2018-01-31T06:51:18.552Z,48.70
2018-01-31T06:53:46.198Z,45.10
2018-01-31T06:56:13.852Z,43.17
2018-01-31T06:58:41.518Z,42.50
2018-01-31T07:01:09.191Z,45.23
2018-01-31T07:03:36.857Z,45.20
2018-01-31T07:06:04.538Z,44.10
2018-01-31T07:08:32.317Z,44.63
2018-01-31T07:11:00.731Z,43.37
2018-01-31T07:13:28.405Z,44.93
2018-01-31T07:15:56.054Z,43.17
2018-01-31T07:18:23.710Z,45.43
2018-01-31T07:20:51.369Z,47.23
2018-01-31T07:23:19.021Z,44.93
2018-01-31T07:25:46.678Z,42.60
2018-01-31T07:28:14.387Z,44.13
2018-01-31T07:30:42.042Z,50.37
2018-01-31T07:33:09.722Z,50.17
2018-01-31T07:35:37.392Z,42.97
2018-01-31T07:38:05.843Z,45.43
2018-01-31T07:40:33.509Z,48.03
2018-01-31T07:43:02.007Z,41.93
2018-01-31T07:45:29.805Z,47.17
2018-01-31T07:47:57.484Z,48.87
2018-01-31T07:50:25.263Z,48.00
2018-01-31T07:52:52.930Z,50.13
2018-01-31T07:55:20.625Z,48.17
2018-01-31T07:57:49.065Z,47.10
2018-01-31T08:00:16.762Z,40.57
2018-01-31T08:02:44.431Z,42.83
2018-01-31T08:05:12.857Z,40.43
2018-01-31T08:07:40.534Z,37.83
2018-01-31T08:10:08.241Z,35.47
2018-01-31T08:12:36.730Z,34.63
2018-01-31T08:15:04.455Z,34.60
2018-01-31T08:17:32.184Z,28.20
2018-01-31T08:19:59.892Z,28.63
2018-01-31T08:22:28.346Z,29.13
2018-01-31T08:24:55.994Z,26.63
2018-01-31T08:27:23.664Z,27.67
2018-01-31T08:29:52.164Z,29.73
2018-01-31T08:32:19.810Z,27.47
2018-01-31T08:34:47.497Z,29.27
2018-01-31T08:37:15.932Z,24.73
2018-01-31T08:39:43.700Z,28.07
2018-01-31T08:42:11.357Z,26.10
2018-01-31T08:44:39.030Z,25.63
2018-01-31T08:47:06.678Z,22.20
2018-01-31T08:49:34.357Z,22.33
2018-01-31T08:52:02.218Z,24.70
2018-01-31T08:54:30.054Z,19.13
2018-01-31T08:56:57.747Z,19.03
2018-01-31T08:59:25.434Z,16.87
2018-01-31T09:01:53.902Z,18.70
2018-01-31T09:04:21.707Z,19.27
2018-01-31T09:06:49.399Z,16.97
2018-01-31T09:09:17.073Z,20.43
2018-01-31T09:11:44.755Z,18.23
2018-01-31T09:14:13.243Z,15.63
2018-01-31T09:16:41.714Z,15.90
2018-01-31T09:19:10.185Z,16.87
2018-01-31T09:21:37.892Z,13.90
2018-01-31T09:24:05.719Z,16.30
2018-01-31T09:26:34.241Z,15.83
2018-01-31T09:29:01.955Z,14.80
2018-01-31T09:31:29.713Z,13.83
2018-01-31T09:33:57.473Z,13.83
2018-01-31T09:36:25.160Z,12.63
2018-01-31T09:38:53.653Z,14.67
2018-01-31T09:41:21.339Z,14.90
2018-01-31T09:43:49.027Z,14.47
2018-01-31T09:46:16.730Z,12.10
2018-01-31T09:48:45.166Z,11.77
2018-01-31T09:51:12.882Z,11.43
2018-01-31T09:53:40.669Z,10.40
2018-01-31T09:56:08.368Z,11.93
2018-01-31T09:58:36.080Z,12.43
2018-01-31T10:01:03.796Z,12.37
2018-01-31T10:03:32.290Z,14.10
2018-01-31T10:06:00.729Z,10.80
2018-01-31T10:08:28.430Z,13.87
2018-01-31T10:10:56.974Z,13.53
2018-01-31T10:13:24.680Z,12.93
2018-01-31T10:15:53.137Z,14.77
2018-01-31T10:18:20.838Z,12.73
2018-01-31T10:20:48.522Z,10.53
2018-01-31T10:23:16.205Z,13.80
2018-01-31T10:25:43.916Z,13.90
2018-01-31T10:28:11.708Z,13.60
2018-01-31T10:30:39.385Z,13.87
2018-01-31T10:33:07.145Z,12.97
2018-01-31T10:35:34.934Z,14.77
2018-01-31T10:38:02.645Z,14.17
2018-01-31T10:40:30.355Z,16.80
2018-01-31T10:42:58.082Z,14.77
2018-01-31T10:45:25.757Z,14.50
2018-01-31T10:47:53.468Z,14.67
2018-01-31T10:50:21.297Z,14.50
2018-01-31T10:52:49.065Z,12.80
2018-01-31T10:57:28.683Z,15.80
2018-01-31T10:57:44.579Z,18.60
2018-01-31T11:00:12.382Z,17.93
2018-01-31T11:02:40.065Z,20.30
2018-01-31T11:05:07.754Z,23.37
2018-01-31T11:07:35.427Z,21.43
2018-01-31T11:10:03.149Z,18.70
2018-01-31T11:12:31.613Z,21.17
2018-01-31T11:14:59.312Z,18.97
2018-01-31T11:17:27.015Z,17.23
2018-01-31T11:19:55.466Z,15.73
2018-01-31T11:22:23.169Z,15.27
2018-01-31T11:24:51.630Z,14.53
2018-01-31T11:27:20.094Z,14.87
2018-01-31T11:29:47.790Z,14.27
2018-01-31T11:32:15.506Z,18.60
2018-01-31T11:34:43.243Z,20.43
2018-01-31T11:37:11.015Z,15.27
2018-01-31T11:39:38.696Z,16.93
2018-01-31T11:42:06.381Z,15.57
2018-01-31T11:44:34.808Z,17.23
2018-01-31T11:47:02.479Z,15.53
2018-01-31T11:49:30.118Z,16.70
2018-01-31T11:51:57.776Z,18.53
2018-01-31T11:54:25.410Z,19.03
2018-01-31T11:56:53.836Z,17.43
2018-01-31T11:59:21.491Z,19.10
2018-01-31T12:01:49.173Z,17.07
2018-01-31T12:04:16.803Z,18.53
2018-01-31T12:06:44.442Z,19.83
2018-01-31T12:09:24.059Z,18.13
2018-01-31T12:11:52.475Z,21.90
2018-01-31T12:14:32.053Z,18.40
2018-01-31T12:17:10.824Z,17.27
2018-01-31T12:19:50.475Z,19.40
2018-01-31T12:22:29.909Z,18.20
2018-01-31T12:25:09.462Z,20.13
2018-01-31T12:27:49.066Z,19.47
2018-01-31T12:30:28.549Z,21.57
2018-01-31T12:33:08.147Z,21.40
2018-01-31T12:35:48.448Z,22.53
2018-01-31T12:38:27.995Z,19.63
2018-01-31T12:40:55.144Z,20.60
2018-01-31T12:43:22.307Z,20.37
2018-01-31T12:45:49.466Z,22.97
2018-01-31T12:48:29.078Z,22.00
2018-01-31T12:51:08.461Z,24.07
2018-01-31T12:53:53.740Z,22.57
2018-01-31T12:56:48.845Z,21.47
2018-01-31T12:59:28.316Z,21.70
2018-01-31T13:02:18.623Z,22.67
2018-01-31T13:04:58.037Z,20.90
2018-01-31T13:07:46.521Z,22.10
2018-01-31T13:10:25.982Z,19.10
2018-01-31T13:13:06.262Z,23.80
2018-01-31T13:18:45.586Z,21.90
2018-01-31T13:21:25.907Z,22.53
2018-01-31T13:24:05.374Z,21.13
2018-01-31T13:29:32.706Z,25.17
2018-01-31T13:32:12.292Z,25.13
2018-01-31T13:34:52.790Z,24.73
2018-01-31T13:37:38.226Z,28.00
2018-01-31T13:40:13.708Z,26.57
2018-01-31T13:42:48.747Z,26.17
2018-01-31T13:45:28.382Z,22.37
2018-01-31T13:48:08.046Z,25.00
2018-01-31T13:50:47.672Z,24.67
2018-01-31T13:53:27.152Z,24.30
2018-01-31T13:56:06.643Z,25.87
2018-01-31T13:58:47.328Z,23.53
2018-01-31T14:01:26.778Z,23.77
2018-01-31T14:04:03.073Z,23.10
2018-01-31T14:06:43.525Z,23.33
2018-01-31T14:09:22.973Z,23.47
2018-01-31T14:12:03.239Z,25.73
2018-01-31T14:14:43.626Z,24.17
2018-01-31T14:17:23.170Z,22.33
2018-01-31T14:20:02.761Z,20.23
2018-01-31T14:22:42.283Z,20.30
2018-01-31T14:25:21.837Z,23.13
2018-01-31T14:28:01.387Z,24.00
2018-01-31T14:30:41.750Z,17.97
2018-01-31T14:33:22.129Z,23.87
2018-01-31T14:36:01.613Z,25.17
2018-01-31T14:38:28.756Z,18.53
2018-01-31T14:40:55.912Z,17.17
2018-01-31T14:43:23.073Z,17.43
2018-01-31T14:45:50.210Z,19.83
2018-01-31T14:48:17.350Z,17.27
2018-01-31T14:50:44.519Z,16.97
2018-01-31T14:53:11.838Z,19.27
2018-01-31T14:55:38.977Z,19.47
2018-01-31T14:58:06.127Z,18.77
2018-01-31T15:00:33.261Z,18.73
2018-01-31T15:03:00.414Z,18.07
2018-01-31T15:05:27.570Z,18.10
2018-01-31T15:07:54.854Z,19.37
2018-01-31T15:10:21.986Z,19.00
2018-01-31T15:12:49.333Z,18.57
2018-01-31T15:15:16.485Z,21.20
2018-01-31T15:17:43.653Z,19.07
2018-01-31T15:20:10.837Z,17.67
2018-01-31T15:22:38.777Z,21.90
2018-01-31T15:25:05.920Z,17.90
2018-01-31T15:27:33.071Z,21.23
2018-01-31T15:30:00.229Z,22.77
2018-01-31T15:32:28.167Z,21.53
2018-01-31T15:34:55.316Z,19.20
2018-01-31T15:37:22.542Z,19.17
2018-01-31T15:39:49.811Z,19.13
2018-01-31T15:42:16.951Z,23.47
2018-01-31T15:44:44.098Z,24.70
2018-01-31T15:47:11.253Z,19.23
2018-01-31T15:49:38.510Z,20.10
2018-01-31T15:52:05.774Z,23.93
2018-01-31T15:54:33.015Z,25.27
2018-01-31T15:57:00.188Z,26.67
2018-01-31T15:59:27.446Z,23.40
2018-01-31T16:01:54.683Z,26.83
2018-01-31T16:04:21.854Z,23.47
2018-01-31T16:06:49.780Z,23.83
2018-01-31T16:09:16.942Z,20.90
2018-01-31T16:11:44.125Z,26.97
2018-01-31T16:14:12.046Z,52.50
2018-01-31T16:16:39.745Z,27.10
2018-01-31T16:19:20.370Z,23.63
2018-01-31T16:21:49.514Z,25.97
2018-01-31T16:24:18.154Z,24.03
2018-01-31T16:26:47.545Z,25.63
2018-01-31T16:29:28.721Z,25.47
2018-01-31T16:32:09.692Z,24.07
2018-01-31T16:34:38.789Z,30.73
2018-01-31T16:37:07.881Z,20.93
2018-01-31T16:39:36.942Z,22.60
2018-01-31T16:42:05.251Z,24.17
2018-01-31T16:44:34.315Z,20.00
2018-01-31T16:47:02.724Z,21.97
2018-01-31T16:49:32.023Z,26.07
2018-01-31T16:52:01.014Z,22.33
2018-01-31T16:54:29.951Z,21.83
2018-01-31T16:56:58.063Z,24.40
2018-01-31T16:59:26.021Z,25.10
2018-01-31T17:01:53.969Z,22.77
2018-01-31T17:04:22.184Z,22.80
2018-01-31T17:06:51.282Z,27.47
2018-01-31T17:09:20.272Z,25.30
2018-01-31T17:11:49.364Z,24.60
2018-01-31T17:14:18.253Z,22.87
2018-01-31T17:16:46.220Z,21.03
2018-01-31T17:19:14.251Z,23.40
2018-01-31T17:21:43.012Z,22.53
2018-01-31T17:24:11.034Z,24.77
2018-01-31T17:26:39.045Z,23.73
2018-01-31T17:29:07.611Z,24.03
2018-01-31T17:31:35.316Z,25.70
2018-01-31T17:34:03.770Z,27.30
2018-01-31T17:36:31.473Z,24.13
2018-01-31T17:38:59.179Z,24.23
2018-01-31T17:41:26.869Z,23.53
2018-01-31T17:43:55.382Z,26.80
2018-01-31T17:46:23.094Z,27.20
2018-01-31T17:48:50.844Z,26.30
2018-01-31T17:51:18.554Z,26.10
2018-01-31T17:53:46.254Z,27.70
2018-01-31T17:56:14.040Z,25.20
2018-01-31T17:58:42.613Z,24.80
2018-01-31T18:01:10.327Z,27.13
2018-01-31T18:03:38.017Z,27.67
2018-01-31T18:06:05.736Z,23.67
2018-01-31T18:08:33.541Z,24.30
2018-01-31T18:11:01.326Z,26.90
2018-01-31T18:13:29.078Z,28.40
2018-01-31T18:15:56.777Z,27.43
2018-01-31T18:18:25.282Z,25.63
2018-01-31T18:20:53.387Z,26.83
2018-01-31T18:23:21.172Z,23.80
2018-01-31T18:25:48.928Z,28.03
2018-01-31T18:28:16.770Z,24.33
2018-01-31T18:30:44.494Z,23.70
2018-01-31T18:33:12.267Z,24.00
2018-01-31T18:35:40.061Z,21.40
2018-01-31T18:38:07.925Z,24.23
2018-01-31T18:40:35.793Z,27.60
2018-01-31T18:43:03.657Z,26.90
2018-01-31T18:45:31.409Z,26.27
2018-01-31T18:47:59.531Z,23.47
2018-01-31T18:50:28.379Z,27.17
2018-01-31T18:52:56.362Z,29.90
2018-01-31T18:55:25.069Z,34.23
2018-01-31T18:57:54.014Z,37.70
2018-01-31T19:00:21.785Z,28.73
2018-01-31T19:02:49.558Z,30.63
2018-01-31T19:05:17.267Z,29.87
2018-01-31T19:07:45.752Z,26.40
2018-01-31T19:10:13.557Z,25.47
2018-01-31T19:12:41.309Z,25.23
2018-01-31T19:15:09.022Z,25.57
2018-01-31T19:17:37.521Z,28.30
2018-01-31T19:20:05.316Z,30.10
2018-01-31T19:22:33.047Z,29.60
2018-01-31T19:25:00.781Z,27.87
2018-01-31T19:27:29.659Z,29.40
2018-01-31T19:29:57.390Z,27.13
2018-01-31T19:32:25.145Z,27.43
2018-01-31T19:34:52.862Z,26.67
2018-01-31T19:37:21.386Z,27.27
2018-01-31T19:39:49.107Z,26.67
2018-01-31T19:42:17.642Z,29.47
2018-01-31T19:44:45.439Z,28.27
2018-01-31T19:47:13.209Z,28.50
2018-01-31T19:49:41.778Z,27.83
2018-01-31T19:52:09.560Z,26.87
2018-01-31T19:54:38.046Z,24.40
2018-01-31T19:57:06.606Z,26.43
2018-01-31T19:59:34.347Z,28.90
2018-01-31T20:02:02.110Z,32.50
2018-01-31T20:04:29.827Z,33.27
2018-01-31T20:06:57.584Z,26.60
2018-01-31T20:09:25.399Z,26.53
2018-01-31T20:11:53.129Z,27.57
2018-01-31T20:14:20.878Z,28.27
2018-01-31T20:16:48.649Z,33.30
2018-01-31T20:19:16.413Z,27.67
2018-01-31T20:21:44.172Z,25.17
2018-01-31T20:24:11.939Z,27.83
2018-01-31T20:26:39.651Z,26.00
2018-01-31T20:29:08.170Z,26.03
2018-01-31T20:31:36.732Z,27.87
2018-01-31T20:34:05.675Z,30.53
2018-01-31T20:36:33.458Z,25.60
2018-01-31T20:39:01.264Z,27.33
2018-01-31T20:41:29.815Z,29.07
2018-01-31T20:43:57.582Z,26.00
2018-01-31T20:46:25.406Z,27.70
2018-01-31T20:48:53.796Z,30.60
2018-01-31T20:51:22.382Z,27.67
2018-01-31T20:53:50.119Z,27.13
2018-01-31T20:56:17.899Z,29.83
2018-01-31T20:58:45.705Z,28.83
2018-01-31T21:01:14.366Z,32.00
2018-01-31T21:03:42.089Z,32.13
2018-01-31T21:06:09.897Z,30.87
2018-01-31T21:08:37.674Z,33.73
2018-01-31T21:11:06.198Z,34.70
2018-01-31T21:13:33.956Z,34.37
2018-01-31T21:16:01.759Z,35.43
2018-01-31T21:18:29.518Z,34.93
2018-01-31T21:20:58.047Z,36.07
2018-01-31T21:23:25.797Z,39.43
2018-01-31T21:25:54.754Z,38.43
2018-01-31T21:28:22.577Z,39.37
2018-01-31T21:30:50.546Z,35.80
2018-01-31T21:33:18.292Z,36.90
2018-01-31T21:35:46.780Z,37.47
2018-01-31T21:38:15.287Z,40.20
2018-01-31T21:40:43.059Z,40.67
2018-01-31T21:43:10.883Z,39.20
2018-01-31T21:45:39.391Z,37.70
2018-01-31T21:48:07.177Z,38.80
2018-01-31T21:50:34.894Z,37.03
2018-01-31T21:53:03.536Z,38.97
2018-01-31T21:55:31.387Z,36.67
2018-01-31T21:57:59.238Z,32.97
2018-01-31T22:00:26.967Z,37.43
2018-01-31T22:02:55.429Z,35.70
2018-01-31T22:05:23.133Z,35.93
2018-01-31T22:07:50.834Z,34.73
2018-01-31T22:10:18.611Z,36.03
2018-01-31T22:12:46.314Z,36.67
2018-01-31T22:15:14.015Z,36.83
2018-01-31T22:17:41.714Z,36.07
2018-01-31T22:20:10.178Z,37.80
2018-01-31T22:22:37.950Z,37.87
2018-01-31T22:25:06.413Z,37.73
2018-01-31T22:27:34.107Z,37.27
2018-01-31T22:30:02.586Z,39.10
2018-01-31T22:32:31.020Z,34.73
2018-01-31T22:34:58.745Z,38.77
2018-01-31T22:37:26.435Z,36.27
2018-01-31T22:39:54.134Z,37.90
2018-01-31T22:42:22.619Z,38.07
2018-01-31T22:44:51.089Z,35.33
2018-01-31T22:47:18.822Z,35.83
2018-01-31T22:49:46.531Z,33.47
2018-01-31T22:52:15.055Z,36.57
2018-01-31T22:54:42.750Z,32.30
2018-01-31T22:57:10.444Z,31.80
2018-01-31T22:59:38.162Z,33.33
2018-01-31T23:02:05.855Z,28.77
2018-01-31T23:04:34.314Z,32.07
2018-01-31T23:07:02.013Z,31.37
2018-01-31T23:09:29.745Z,32.87
2018-01-31T23:11:58.295Z,31.60
2018-01-31T23:14:31.607Z,33.50
2018-01-31T23:16:59.302Z,32.43
2018-01-31T23:19:27.006Z,31.37
2018-01-31T23:21:54.697Z,38.73
2018-01-31T23:24:22.373Z,32.77
2018-01-31T23:26:50.829Z,31.90
2018-01-31T23:29:18.516Z,34.93
2018-01-31T23:31:52.903Z,34.67
2018-01-31T23:34:27.064Z,40.27
2018-01-31T23:36:54.778Z,42.30
2018-01-31T23:39:22.585Z,39.13
2018-01-31T23:41:50.341Z,33.30
2018-01-31T23:44:18.859Z,36.57
2018-01-31T23:46:46.601Z,35.77
2018-01-31T23:49:14.272Z,34.83
2018-01-31T23:51:41.954Z,33.10
2018-01-31T23:54:09.659Z,32.73
2018-01-31T23:56:38.144Z,32.73
2018-01-31T23:59:06.609Z,31.23
